Terminal Aerodrome Forecast
Issued by NWS Knoxville/Tri Cities, TN

Home | Current Version | Previous Version | Text Only | Print | Product List | Glossary On
Versions: 1 2 3 4 5 6 7 8 9 10 11 12 13 14 15 16 17 18 19 20 21 22 23 24 25 26 27 28
000
FTUS44 KMRX 240528
TAFCHA
TAF
KCHA 240528Z 2406/2506 22005KT P6SM BKN120
     FM240800 23003KT P6SM VCSH SCT035 BKN100
      TEMPO 2408/2412 5SM -SHRA BR BKN035
     FM241200 30003KT 6SM BR VCSH BKN035
     FM241500 28005KT P6SM BKN035
     FM241800 32006KT P6SM VCSH BKN035
     FM250000 34006KT P6SM SKC=

USA.gov is the U.S. government's official web portal to all federal, state and local government web resources and services.